createdAt,value
2018-09-09T00:01:52.467Z,95871.00
2018-09-09T00:04:23.266Z,95877.00
2018-09-09T00:06:54.035Z,95872.00
2018-09-09T00:09:29.923Z,95879.00
2018-09-09T00:12:00.718Z,95880.00
2018-09-09T00:14:31.622Z,95880.00
2018-09-09T00:17:02.509Z,95880.00
2018-09-09T00:19:33.295Z,95882.00
2018-09-09T00:22:04.106Z,95883.00
2018-09-09T00:24:34.930Z,95879.00
2018-09-09T00:27:06.147Z,95886.00
2018-09-09T00:29:36.945Z,95883.00
2018-09-09T00:32:07.944Z,95881.00
2018-09-09T00:34:38.796Z,95881.00
2018-09-09T00:37:09.643Z,95880.00
2018-09-09T00:39:40.462Z,95883.00
2018-09-09T00:42:11.304Z,95884.00
2018-09-09T00:44:42.132Z,95881.00
2018-09-09T00:47:13.002Z,95878.00
2018-09-09T00:49:48.835Z,95880.00
2018-09-09T00:52:24.822Z,95880.00
2018-09-09T00:54:56.245Z,95883.00
2018-09-09T00:57:27.073Z,95879.00
2018-09-09T00:59:58.023Z,95883.00
2018-09-09T01:02:28.865Z,95882.00
2018-09-09T01:04:59.785Z,95887.00
2018-09-09T01:07:30.591Z,95880.00
2018-09-09T01:10:01.483Z,95880.00
2018-09-09T01:12:32.354Z,95880.00
2018-09-09T01:15:03.320Z,95882.00
2018-09-09T01:17:34.203Z,95883.00
2018-09-09T01:20:05.203Z,95880.00
2018-09-09T01:22:36.070Z,95884.00
2018-09-09T01:25:06.962Z,95879.00
2018-09-09T01:27:37.795Z,95880.00
2018-09-09T01:30:08.718Z,95874.00
2018-09-09T01:32:39.906Z,95877.00
2018-09-09T01:35:10.706Z,95875.00
2018-09-09T01:37:41.442Z,95880.00
2018-09-09T01:40:12.244Z,95882.00
2018-09-09T01:42:43.059Z,95884.00
2018-09-09T01:45:13.922Z,95887.00
2018-09-09T01:47:44.867Z,95884.00
2018-09-09T01:50:15.701Z,95886.00
2018-09-09T01:52:46.595Z,95885.00
2018-09-09T01:55:17.343Z,95891.00
2018-09-09T01:57:48.126Z,95888.00
2018-09-09T02:00:18.968Z,95894.00
2018-09-09T02:02:49.757Z,95886.00
2018-09-09T02:05:20.579Z,95890.00
2018-09-09T02:07:51.779Z,95885.00
2018-09-09T02:10:22.658Z,95882.00
2018-09-09T02:12:53.524Z,95882.00
2018-09-09T02:15:24.335Z,95880.00
2018-09-09T02:17:55.142Z,95879.00
2018-09-09T02:20:25.924Z,95883.00
2018-09-09T02:22:56.723Z,95889.00
2018-09-09T02:25:27.565Z,95890.00
2018-09-09T02:27:58.315Z,95887.00
2018-09-09T02:30:29.172Z,95888.00
2018-09-09T02:33:00.122Z,95889.00
2018-09-09T02:35:31.006Z,95892.00
2018-09-09T02:38:01.774Z,95889.00
2018-09-09T02:40:32.611Z,95888.00
2018-09-09T02:43:03.466Z,95888.00
2018-09-09T02:45:34.283Z,95888.00
2018-09-09T02:48:05.159Z,95886.00
2018-09-09T02:50:35.947Z,95885.00
2018-09-09T02:53:06.742Z,95886.00
2018-09-09T02:55:42.572Z,95884.00
2018-09-09T02:58:15.195Z,95890.00
2018-09-09T03:00:47.131Z,95897.00
2018-09-09T03:03:17.923Z,95895.00
2018-09-09T03:05:48.742Z,95896.00
2018-09-09T03:08:19.588Z,95895.00
2018-09-09T03:10:54.440Z,95897.00
2018-09-09T03:13:25.567Z,95901.00
2018-09-09T03:15:56.398Z,95897.00
2018-09-09T03:18:27.225Z,95889.00
2018-09-09T03:20:58.107Z,95886.00
2018-09-09T03:23:30.066Z,95885.00
2018-09-09T03:26:01.755Z,95882.00
2018-09-09T03:28:33.371Z,95885.00
2018-09-09T03:31:04.134Z,95884.00
2018-09-09T03:33:35.056Z,95886.00
2018-09-09T03:36:06.027Z,95887.00
2018-09-09T03:38:36.794Z,95885.00
2018-09-09T03:41:08.567Z,95883.00
2018-09-09T03:43:39.344Z,95886.00
2018-09-09T03:46:10.147Z,95884.00
2018-09-09T03:48:40.902Z,95891.00
2018-09-09T03:51:11.705Z,95890.00
2018-09-09T03:53:42.435Z,95890.00
2018-09-09T03:56:13.223Z,95889.00
2018-09-09T03:58:43.942Z,95895.00
2018-09-09T04:01:14.742Z,95893.00
2018-09-09T04:03:45.540Z,95895.00
2018-09-09T04:06:16.562Z,95896.00
2018-09-09T04:08:47.311Z,95893.00
2018-09-09T04:11:18.145Z,95894.00
2018-09-09T04:13:49.114Z,95898.00
2018-09-09T04:16:19.883Z,95900.00
2018-09-09T04:18:50.791Z,95903.00
2018-09-09T04:21:21.643Z,95904.00
2018-09-09T04:23:52.455Z,95904.00
2018-09-09T04:26:23.330Z,95908.00
2018-09-09T04:28:54.172Z,95910.00
2018-09-09T04:31:25.043Z,95912.00
2018-09-09T04:33:55.839Z,95912.00
2018-09-09T04:36:26.720Z,95925.00
2018-09-09T04:38:57.568Z,95923.00
2018-09-09T04:41:28.416Z,95927.00
2018-09-09T04:43:59.235Z,95929.00
2018-09-09T04:46:30.198Z,95935.00
2018-09-09T04:49:00.985Z,95936.00
2018-09-09T04:51:31.811Z,95935.00
2018-09-09T04:54:02.575Z,95934.00
2018-09-09T04:56:33.543Z,95933.00
2018-09-09T04:59:04.659Z,95932.00
2018-09-09T05:01:35.425Z,95939.00
2018-09-09T05:04:06.227Z,95938.00
2018-09-09T05:06:37.084Z,95939.00
2018-09-09T05:09:09.283Z,95941.00
2018-09-09T05:11:40.303Z,95941.00
2018-09-09T05:14:11.130Z,95941.00
2018-09-09T05:16:42.035Z,95938.00
2018-09-09T05:19:12.855Z,95938.00
2018-09-09T05:21:43.674Z,95943.00
2018-09-09T05:24:14.434Z,95947.00
2018-09-09T05:26:45.222Z,95946.00
2018-09-09T05:29:15.978Z,95952.00
2018-09-09T05:31:46.823Z,95955.00
2018-09-09T05:34:17.847Z,95958.00
2018-09-09T05:36:48.973Z,95961.00
2018-09-09T05:39:19.863Z,95965.00
2018-09-09T05:41:50.776Z,95967.00
2018-09-09T05:44:21.563Z,95969.00
2018-09-09T05:46:52.662Z,95968.00
2018-09-09T05:49:23.564Z,95968.00
2018-09-09T05:51:54.715Z,95967.00
2018-09-09T05:54:26.042Z,95968.00
2018-09-09T05:56:56.890Z,95968.00
2018-09-09T05:59:27.701Z,95966.00
2018-09-09T06:01:58.577Z,95967.00
2018-09-09T06:04:29.415Z,95969.00
2018-09-09T06:07:00.746Z,95970.00
2018-09-09T06:09:31.579Z,95970.00
2018-09-09T06:12:02.461Z,95973.00
2018-09-09T06:14:33.264Z,95974.00
2018-09-09T06:17:04.323Z,95975.00
2018-09-09T06:19:35.245Z,95977.00
2018-09-09T06:22:06.356Z,95972.00
2018-09-09T06:24:37.733Z,95972.00
2018-09-09T06:27:08.545Z,95966.00
2018-09-09T06:29:39.270Z,95961.00
2018-09-09T06:32:10.429Z,95961.00
2018-09-09T06:34:41.542Z,95967.00
2018-09-09T06:37:12.902Z,95960.00
2018-09-09T06:39:43.978Z,95961.00
2018-09-09T06:42:14.843Z,95959.00
2018-09-09T06:44:45.836Z,95957.00
2018-09-09T06:47:16.606Z,95960.00
2018-09-09T06:49:47.459Z,95961.00
2018-09-09T06:52:18.296Z,95958.00
2018-09-09T06:54:49.203Z,95960.00
2018-09-09T06:57:20.246Z,95954.00
2018-09-09T06:59:51.083Z,95954.00
2018-09-09T07:02:22.051Z,95948.00
2018-09-09T07:04:52.957Z,95951.00
2018-09-09T07:07:23.842Z,95954.00
2018-09-09T07:09:54.944Z,95952.00
2018-09-09T07:12:25.745Z,95951.00
2018-09-09T07:14:56.607Z,95949.00
2018-09-09T07:17:27.824Z,95952.00
2018-09-09T07:19:58.685Z,95955.00
2018-09-09T07:22:30.197Z,95953.00
2018-09-09T07:25:02.037Z,95949.00
2018-09-09T07:27:32.936Z,95946.00
2018-09-09T07:30:03.865Z,95945.00
2018-09-09T07:32:34.711Z,95944.00
2018-09-09T07:35:05.564Z,95944.00
2018-09-09T07:37:36.482Z,95943.00
2018-09-09T07:40:07.443Z,95942.00
2018-09-09T07:42:38.561Z,95943.00
2018-09-09T07:45:09.391Z,95951.00
2018-09-09T07:47:40.343Z,95946.00
2018-09-09T07:50:11.183Z,95953.00
2018-09-09T07:52:42.098Z,95952.00
2018-09-09T07:55:12.942Z,95956.00
2018-09-09T07:57:44.348Z,95957.00
2018-09-09T08:00:15.281Z,95952.00
2018-09-09T08:02:46.191Z,95953.00
2018-09-09T08:05:17.065Z,95949.00
2018-09-09T08:07:48.085Z,95947.00
2018-09-09T08:10:19.025Z,95945.00
2018-09-09T08:12:50.207Z,95948.00
2018-09-09T08:15:21.103Z,95946.00
2018-09-09T08:17:52.076Z,95944.00
2018-09-09T08:20:22.945Z,95945.00
2018-09-09T08:22:53.863Z,95944.00
2018-09-09T08:25:24.815Z,95942.00
2018-09-09T08:27:56.316Z,95937.00
2018-09-09T08:30:27.406Z,95933.00
2018-09-09T08:32:58.474Z,95936.00
2018-09-09T08:35:29.335Z,95939.00
2018-09-09T08:38:00.202Z,95940.00
2018-09-09T08:40:31.070Z,95935.00
2018-09-09T08:43:01.966Z,95937.00
2018-09-09T08:45:32.829Z,95933.00
2018-09-09T08:48:03.899Z,95934.00
2018-09-09T08:50:34.763Z,95931.00
2018-09-09T08:53:05.724Z,95926.00
2018-09-09T08:55:36.546Z,95930.00
2018-09-09T08:58:07.460Z,95924.00
2018-09-09T09:00:38.312Z,95920.00
2018-09-09T09:03:09.287Z,95918.00
2018-09-09T09:05:40.133Z,95914.00
2018-09-09T09:08:11.200Z,95912.00
2018-09-09T09:10:42.418Z,95904.00
2018-09-09T09:13:13.976Z,95903.00
2018-09-09T09:15:44.864Z,95903.00
2018-09-09T09:18:15.771Z,95903.00
2018-09-09T09:20:46.617Z,95899.00
2018-09-09T09:23:17.713Z,95902.00
2018-09-09T09:25:51.845Z,95904.00
2018-09-09T09:28:23.576Z,95905.00
2018-09-09T09:30:55.019Z,95903.00
2018-09-09T09:33:25.983Z,95903.00
2018-09-09T09:35:56.943Z,95903.00
2018-09-09T09:38:27.872Z,95898.00
2018-09-09T09:40:58.929Z,95901.00
2018-09-09T09:43:30.027Z,95894.00
2018-09-09T09:46:00.897Z,95886.00
2018-09-09T09:48:31.783Z,95892.00
2018-09-09T09:51:02.751Z,95890.00
2018-09-09T09:53:33.729Z,95883.00
2018-09-09T09:56:04.692Z,95879.00
2018-09-09T09:58:35.483Z,95874.00
2018-09-09T10:01:07.838Z,95876.00
2018-09-09T10:03:38.763Z,95876.00
2018-09-09T10:06:09.689Z,95875.00
2018-09-09T10:08:40.624Z,95868.00
2018-09-09T10:11:11.413Z,95863.00
2018-09-09T10:13:42.955Z,95866.00
2018-09-09T10:16:14.072Z,95862.00
2018-09-09T10:18:45.073Z,95857.00
2018-09-09T10:21:15.904Z,95853.00
2018-09-09T10:23:47.559Z,95848.00
2018-09-09T10:26:18.408Z,95846.00
2018-09-09T10:28:49.313Z,95843.00
2018-09-09T10:31:20.272Z,95835.00
2018-09-09T10:33:52.584Z,95829.00
2018-09-09T10:36:23.404Z,95830.00
2018-09-09T10:38:54.388Z,95825.00
2018-09-09T10:41:25.336Z,95827.00
2018-09-09T10:43:56.359Z,95820.00
2018-09-09T10:46:27.298Z,95813.00
2018-09-09T10:48:58.314Z,95813.00
2018-09-09T10:51:29.500Z,95810.00
2018-09-09T10:54:00.865Z,95808.00
2018-09-09T10:56:31.873Z,95803.00
2018-09-09T10:59:02.835Z,95807.00
2018-09-09T11:01:34.240Z,95802.00
2018-09-09T11:04:05.236Z,95805.00
2018-09-09T11:06:36.774Z,95802.00
2018-09-09T11:09:10.922Z,95795.00
2018-09-09T11:11:42.288Z,95795.00
2018-09-09T11:14:13.427Z,95786.00
2018-09-09T11:16:44.505Z,95788.00
2018-09-09T11:19:15.391Z,95789.00
2018-09-09T11:21:46.478Z,95783.00
2018-09-09T11:24:17.955Z,95782.00
2018-09-09T11:26:48.839Z,95779.00
2018-09-09T11:29:20.024Z,95778.00
2018-09-09T11:31:50.891Z,95778.00
2018-09-09T11:34:21.929Z,95772.00
2018-09-09T11:36:52.797Z,95773.00
2018-09-09T11:39:24.056Z,95764.00
2018-09-09T11:41:55.003Z,95766.00
2018-09-09T11:44:25.984Z,95759.00
2018-09-09T11:46:57.621Z,95765.00
2018-09-09T11:49:28.554Z,95757.00
2018-09-09T11:52:02.090Z,95762.00
2018-09-09T11:54:33.011Z,95755.00
2018-09-09T11:57:04.356Z,95752.00
2018-09-09T11:59:36.350Z,95751.00
2018-09-09T12:02:07.427Z,95753.00
2018-09-09T12:04:38.252Z,95748.00
2018-09-09T12:07:09.038Z,95744.00
2018-09-09T12:09:40.188Z,95743.00
2018-09-09T12:12:11.145Z,95743.00
2018-09-09T12:14:42.036Z,95737.00
2018-09-09T12:17:13.016Z,95735.00
2018-09-09T12:19:43.941Z,95729.00
2018-09-09T12:22:16.165Z,95730.00
2018-09-09T12:24:47.155Z,95731.00
2018-09-09T12:27:18.016Z,95727.00
2018-09-09T12:29:48.995Z,95724.00
2018-09-09T12:32:19.911Z,95725.00
2018-09-09T12:34:51.089Z,95721.00
2018-09-09T12:37:21.992Z,95725.00
2018-09-09T12:39:52.791Z,95721.00
2018-09-09T12:42:23.816Z,95717.00
2018-09-09T12:44:59.711Z,95718.00
2018-09-09T12:47:35.608Z,95715.00
2018-09-09T12:50:06.808Z,95714.00
2018-09-09T12:52:37.964Z,95716.00
2018-09-09T12:55:09.010Z,95715.00
2018-09-09T12:57:40.748Z,95707.00
2018-09-09T13:00:11.848Z,95710.00
2018-09-09T13:02:42.748Z,95713.00
2018-09-09T13:05:13.726Z,95713.00
2018-09-09T13:07:44.844Z,95710.00
2018-09-09T13:10:15.916Z,95710.00
2018-09-09T13:12:52.029Z,95709.00
2018-09-09T13:15:23.066Z,95712.00
2018-09-09T13:17:54.190Z,95711.00
2018-09-09T13:20:25.172Z,95716.00
2018-09-09T13:22:55.948Z,95717.00
2018-09-09T13:25:26.758Z,95708.00
2018-09-09T13:27:57.648Z,95703.00
2018-09-09T13:30:28.758Z,95704.00
2018-09-09T13:32:59.662Z,95703.00
2018-09-09T13:35:30.639Z,95704.00
2018-09-09T13:38:02.477Z,95701.00
2018-09-09T13:40:33.476Z,95704.00
2018-09-09T13:43:04.256Z,95702.00
2018-09-09T13:45:35.227Z,95705.00
2018-09-09T13:48:06.159Z,95701.00
2018-09-09T13:50:37.010Z,95701.00
2018-09-09T13:53:07.951Z,95704.00
2018-09-09T13:55:38.829Z,95696.00
2018-09-09T13:58:09.448Z,95692.00
2018-09-09T14:00:40.296Z,95698.00
2018-09-09T14:03:11.210Z,95693.00
2018-09-09T14:05:42.218Z,95692.00
2018-09-09T14:08:13.099Z,95693.00
2018-09-09T14:10:44.125Z,95691.00
2018-09-09T14:13:15.019Z,95686.00
2018-09-09T14:15:46.820Z,95687.00
2018-09-09T14:18:19.150Z,95684.00
2018-09-09T14:20:50.109Z,95685.00
2018-09-09T14:23:20.949Z,95682.00
2018-09-09T14:25:51.842Z,95680.00
2018-09-09T14:28:22.637Z,95682.00
2018-09-09T14:30:53.549Z,95684.00
2018-09-09T14:33:24.356Z,95681.00
2018-09-09T14:35:55.567Z,95681.00
2018-09-09T14:38:26.421Z,95679.00
2018-09-09T14:40:57.336Z,95675.00
2018-09-09T14:43:28.364Z,95673.00
2018-09-09T14:45:59.647Z,95678.00
2018-09-09T14:48:30.758Z,95677.00
2018-09-09T14:51:01.869Z,95675.00
2018-09-09T14:53:32.937Z,95676.00
2018-09-09T14:56:03.876Z,95674.00
2018-09-09T14:58:34.988Z,95678.00
2018-09-09T15:01:05.989Z,95687.00
2018-09-09T15:03:36.808Z,95680.00
2018-09-09T15:06:07.680Z,95678.00
2018-09-09T15:08:38.716Z,95674.00
2018-09-09T15:11:09.709Z,95673.00
2018-09-09T15:13:40.652Z,95681.00
2018-09-09T15:16:11.502Z,95685.00
2018-09-09T15:18:42.576Z,95682.00
2018-09-09T15:21:13.452Z,95685.00
2018-09-09T15:23:44.284Z,95681.00
2018-09-09T15:26:15.286Z,95684.00
2018-09-09T15:28:46.402Z,95680.00
2018-09-09T15:31:17.220Z,95688.00
2018-09-09T15:33:48.100Z,95677.00
2018-09-09T15:36:19.148Z,95678.00
2018-09-09T15:38:50.368Z,95674.00
2018-09-09T15:41:21.759Z,95685.00
2018-09-09T15:43:52.547Z,95686.00
2018-09-09T15:46:23.435Z,95682.00
2018-09-09T15:48:54.246Z,95690.00
2018-09-09T15:51:25.099Z,95691.00
2018-09-09T15:53:55.849Z,95693.00
2018-09-09T15:56:26.650Z,95696.00
2018-09-09T15:58:57.479Z,95701.00
2018-09-09T16:01:28.415Z,95706.00
2018-09-09T16:03:59.316Z,95716.00
2018-09-09T16:06:30.431Z,95715.00
2018-09-09T16:09:01.296Z,95715.00
2018-09-09T16:11:32.173Z,95723.00
2018-09-09T16:14:03.076Z,95726.00
2018-09-09T16:16:33.906Z,95722.00
2018-09-09T16:19:04.804Z,95726.00
2018-09-09T16:21:35.783Z,95733.00
2018-09-09T16:24:06.628Z,95735.00
2018-09-09T16:26:37.517Z,95741.00
2018-09-09T16:29:08.285Z,95736.00
2018-09-09T16:31:39.166Z,95734.00
2018-09-09T16:34:10.088Z,95732.00
2018-09-09T16:36:41.248Z,95748.00
2018-09-09T16:39:12.085Z,95743.00
2018-09-09T16:41:43.917Z,95752.00
2018-09-09T16:44:16.467Z,95751.00
2018-09-09T16:46:47.709Z,95755.00
2018-09-09T16:49:18.489Z,95756.00
2018-09-09T16:51:49.520Z,95752.00
2018-09-09T16:54:21.479Z,95751.00
2018-09-09T16:56:53.127Z,95744.00
2018-09-09T16:59:24.043Z,95744.00
2018-09-09T17:01:55.156Z,95748.00
2018-09-09T17:04:26.219Z,95740.00
2018-09-09T17:06:57.139Z,95756.00
2018-09-09T17:09:28.151Z,95761.00
2018-09-09T17:11:59.125Z,95758.00
2018-09-09T17:14:30.249Z,95758.00
2018-09-09T17:17:01.287Z,95758.00
2018-09-09T17:19:32.714Z,95759.00
2018-09-09T17:22:04.273Z,95760.00
2018-09-09T17:24:35.468Z,95764.00
2018-09-09T17:27:06.954Z,95774.00
2018-09-09T17:29:38.010Z,95771.00
2018-09-09T17:32:11.011Z,95777.00
2018-09-09T17:34:41.915Z,95776.00
2018-09-09T17:37:12.949Z,95787.00
2018-09-09T17:39:45.193Z,95785.00
2018-09-09T17:42:16.147Z,95788.00
2018-09-09T17:44:47.104Z,95788.00
2018-09-09T17:47:18.855Z,95792.00
2018-09-09T17:49:49.917Z,95796.00
2018-09-09T17:52:21.409Z,95802.00
2018-09-09T17:54:52.303Z,95805.00
2018-09-09T17:57:23.324Z,95809.00
2018-09-09T17:59:54.677Z,95817.00
2018-09-09T18:02:25.794Z,95820.00
2018-09-09T18:04:58.180Z,95828.00
2018-09-09T18:07:30.791Z,95834.00
2018-09-09T18:10:01.678Z,95839.00
2018-09-09T18:12:32.755Z,95838.00
2018-09-09T18:15:04.928Z,95841.00
2018-09-09T18:17:35.955Z,95838.00
2018-09-09T18:20:07.051Z,95840.00
2018-09-09T18:22:38.069Z,95843.00
2018-09-09T18:25:09.284Z,95849.00
2018-09-09T18:27:40.294Z,95848.00
2018-09-09T18:30:11.384Z,95847.00
2018-09-09T18:32:43.616Z,95850.00
2018-09-09T18:35:14.758Z,95855.00
2018-09-09T18:37:47.288Z,95859.00
2018-09-09T18:40:18.388Z,95858.00
2018-09-09T18:42:49.349Z,95856.00
2018-09-09T18:45:20.299Z,95855.00
2018-09-09T18:47:52.059Z,95860.00
2018-09-09T18:50:23.842Z,95860.00
2018-09-09T18:52:54.925Z,95859.00
2018-09-09T18:55:25.952Z,95860.00
2018-09-09T18:57:57.246Z,95865.00
2018-09-09T19:00:28.170Z,95866.00
2018-09-09T19:03:00.190Z,95869.00
2018-09-09T19:05:31.529Z,95871.00
2018-09-09T19:08:02.867Z,95873.00
2018-09-09T19:10:35.758Z,95877.00
2018-09-09T19:13:09.038Z,95873.00
2018-09-09T19:15:39.975Z,95876.00
2018-09-09T19:18:11.695Z,95872.00
2018-09-09T19:20:42.617Z,95870.00
2018-09-09T19:23:13.806Z,95873.00
2018-09-09T19:25:44.904Z,95881.00
2018-09-09T19:28:16.090Z,95879.00
2018-09-09T19:30:47.222Z,95879.00
2018-09-09T19:33:18.779Z,95882.00
2018-09-09T19:35:49.715Z,95880.00
2018-09-09T19:38:20.768Z,95879.00
2018-09-09T19:40:51.817Z,95880.00
2018-09-09T19:43:23.311Z,95883.00
2018-09-09T19:45:56.026Z,95884.00
2018-09-09T19:48:27.020Z,95888.00
2018-09-09T19:50:59.014Z,95889.00
2018-09-09T19:53:30.481Z,95888.00
2018-09-09T19:56:01.687Z,95893.00
2018-09-09T19:58:32.936Z,95894.00
2018-09-09T20:01:04.615Z,95895.00
2018-09-09T20:03:36.309Z,95890.00
2018-09-09T20:06:07.216Z,95893.00
2018-09-09T20:08:39.076Z,95899.00
2018-09-09T20:11:10.028Z,95905.00
2018-09-09T20:13:41.153Z,95908.00
2018-09-09T20:16:12.522Z,95909.00
2018-09-09T20:18:43.672Z,95909.00
2018-09-09T20:21:24.353Z,95909.00
2018-09-09T20:23:55.358Z,95914.00
2018-09-09T20:26:26.659Z,95915.00
2018-09-09T20:28:57.628Z,95918.00
2018-09-09T20:31:28.775Z,95917.00
2018-09-09T20:33:59.704Z,95917.00
2018-09-09T20:36:30.683Z,95914.00
2018-09-09T20:39:01.871Z,95916.00
2018-09-09T20:41:32.697Z,95913.00
2018-09-09T20:44:03.555Z,95910.00
2018-09-09T20:46:35.518Z,95913.00
2018-09-09T20:49:06.655Z,95915.00
2018-09-09T20:51:37.875Z,95915.00
2018-09-09T20:54:09.147Z,95915.00
2018-09-09T20:56:40.076Z,95923.00
2018-09-09T20:59:11.076Z,95925.00
2018-09-09T21:01:42.046Z,95924.00
2018-09-09T21:04:12.915Z,95925.00
2018-09-09T21:06:43.755Z,95927.00
2018-09-09T21:09:15.136Z,95929.00
2018-09-09T21:11:46.010Z,95926.00
2018-09-09T21:14:16.881Z,95930.00
2018-09-09T21:16:47.890Z,95934.00
2018-09-09T21:19:18.766Z,95940.00
2018-09-09T21:21:49.556Z,95940.00
2018-09-09T21:24:20.487Z,95944.00
2018-09-09T21:26:51.595Z,95939.00
2018-09-09T21:29:22.746Z,95935.00
2018-09-09T21:31:53.643Z,95938.00
2018-09-09T21:34:24.542Z,95947.00
2018-09-09T21:36:55.338Z,95951.00
2018-09-09T21:39:26.355Z,95958.00
2018-09-09T21:41:57.321Z,95952.00
2018-09-09T21:44:28.365Z,95949.00
2018-09-09T21:46:59.359Z,95952.00
2018-09-09T21:49:30.230Z,95955.00
2018-09-09T21:52:01.141Z,95951.00
2018-09-09T21:54:33.216Z,95949.00
2018-09-09T21:57:04.867Z,95960.00
2018-09-09T21:59:36.267Z,95953.00
2018-09-09T22:02:09.131Z,95952.00
2018-09-09T22:04:40.100Z,95948.00
2018-09-09T22:07:11.901Z,95947.00
2018-09-09T22:09:44.308Z,95950.00
2018-09-09T22:12:15.307Z,95945.00
2018-09-09T22:14:46.183Z,95946.00
2018-09-09T22:17:16.966Z,95946.00
2018-09-09T22:19:47.822Z,95948.00
2018-09-09T22:22:18.694Z,95951.00
2018-09-09T22:24:49.802Z,95959.00
2018-09-09T22:27:20.696Z,95954.00
2018-09-09T22:29:51.633Z,95966.00
2018-09-09T22:32:22.430Z,95966.00
2018-09-09T22:34:53.529Z,95965.00
2018-09-09T22:37:24.287Z,95962.00
2018-09-09T22:39:55.103Z,95963.00
2018-09-09T22:42:25.955Z,95964.00
2018-09-09T22:44:56.915Z,95970.00
2018-09-09T22:47:27.771Z,95972.00
2018-09-09T22:49:58.558Z,95971.00
2018-09-09T22:52:29.335Z,95968.00
2018-09-09T22:55:00.368Z,95976.00
2018-09-09T22:57:31.144Z,95984.00
2018-09-09T23:00:01.994Z,95983.00
2018-09-09T23:02:32.727Z,95977.00
2018-09-09T23:05:03.691Z,95977.00
2018-09-09T23:07:34.647Z,95980.00
2018-09-09T23:10:05.654Z,95981.00
2018-09-09T23:12:36.446Z,95982.00
2018-09-09T23:15:07.398Z,95978.00
2018-09-09T23:17:38.177Z,95986.00
2018-09-09T23:20:09.097Z,95982.00
2018-09-09T23:22:39.846Z,95985.00
2018-09-09T23:25:10.774Z,95985.00
2018-09-09T23:27:41.634Z,95985.00
2018-09-09T23:30:12.460Z,95976.00
2018-09-09T23:32:43.440Z,95979.00
2018-09-09T23:35:14.590Z,95985.00
2018-09-09T23:37:45.554Z,95985.00
2018-09-09T23:40:16.375Z,95983.00
2018-09-09T23:42:47.094Z,95979.00
2018-09-09T23:45:17.923Z,95985.00
2018-09-09T23:47:48.790Z,95983.00
2018-09-09T23:50:19.614Z,95981.00
2018-09-09T23:52:50.395Z,95982.00
2018-09-09T23:55:21.218Z,95983.00
2018-09-09T23:57:52.334Z,95983.00
